sensor_id;sensor_type;location;lat;lon;timestamp;temperature;humidity
19174;DHT22;9719;49.322;8.536;2023-04-15T00:00:20;8.50;99.90
19174;DHT22;9719;49.322;8.536;2023-04-15T00:05:22;8.50;99.90
19174;DHT22;9719;49.322;8.536;2023-04-15T00:10:24;8.50;99.90
19174;DHT22;9719;49.322;8.536;2023-04-15T00:15:27;8.50;99.90
19174;DHT22;9719;49.322;8.536;2023-04-15T00:20:28;8.40;99.90
19174;DHT22;9719;49.322;8.536;2023-04-15T00:25:30;8.40;99.90
19174;DHT22;9719;49.322;8.536;2023-04-15T00:30:33;8.20;99.90
19174;DHT22;9719;49.322;8.536;2023-04-15T00:35:35;8.10;99.90
19174;DHT22;9719;49.322;8.536;2023-04-15T00:40:37;7.90;99.90
19174;DHT22;9719;49.322;8.536;2023-04-15T00:45:40;7.80;99.90
19174;DHT22;9719;49.322;8.536;2023-04-15T00:50:42;7.70;99.90
19174;DHT22;9719;49.322;8.536;2023-04-15T00:55:44;7.60;99.90
19174;DHT22;9719;49.322;8.536;2023-04-15T01:00:47;7.60;99.90
19174;DHT22;9719;49.322;8.536;2023-04-15T01:05:53;7.50;99.90
19174;DHT22;9719;49.322;8.536;2023-04-15T01:10:58;7.50;99.90
19174;DHT22;9719;49.322;8.536;2023-04-15T01:16:03;7.50;99.90
19174;DHT22;9719;49.322;8.536;2023-04-15T01:21:05;7.50;99.90
19174;DHT22;9719;49.322;8.536;2023-04-15T01:26:08;7.40;99.90
19174;DHT22;9719;49.322;8.536;2023-04-15T01:31:12;7.40;99.90
19174;DHT22;9719;49.322;8.536;2023-04-15T01:36:13;7.40;99.90
19174;DHT22;9719;49.322;8.536;2023-04-15T01:41:20;7.20;99.90
19174;DHT22;9719;49.322;8.536;2023-04-15T01:46:23;7.20;99.90
19174;DHT22;9719;49.322;8.536;2023-04-15T01:51:24;7.20;99.90
19174;DHT22;9719;49.322;8.536;2023-04-15T01:56:29;7.00;99.90
19174;DHT22;9719;49.322;8.536;2023-04-15T02:01:30;7.00;99.90
19174;DHT22;9719;49.322;8.536;2023-04-15T02:06:32;6.90;99.90
19174;DHT22;9719;49.322;8.536;2023-04-15T02:11:35;6.90;99.90
19174;DHT22;9719;49.322;8.536;2023-04-15T02:16:38;6.80;99.90
19174;DHT22;9719;49.322;8.536;2023-04-15T02:21:40;6.80;99.90
19174;DHT22;9719;49.322;8.536;2023-04-15T02:26:43;6.70;99.90
19174;DHT22;9719;49.322;8.536;2023-04-15T02:31:46;6.60;99.90
19174;DHT22;9719;49.322;8.536;2023-04-15T02:36:47;6.60;99.90
19174;DHT22;9719;49.322;8.536;2023-04-15T02:41:55;6.50;99.90
19174;DHT22;9719;49.322;8.536;2023-04-15T02:46:59;6.50;99.90
19174;DHT22;9719;49.322;8.536;2023-04-15T02:52:01;6.50;99.90
19174;DHT22;9719;49.322;8.536;2023-04-15T02:57:04;6.50;99.90
19174;DHT22;9719;49.322;8.536;2023-04-15T03:02:06;6.40;99.90
19174;DHT22;9719;49.322;8.536;2023-04-15T03:07:08;6.40;99.90
19174;DHT22;9719;49.322;8.536;2023-04-15T03:12:11;6.30;99.90
19174;DHT22;9719;49.322;8.536;2023-04-15T03:17:12;6.30;99.90
19174;DHT22;9719;49.322;8.536;2023-04-15T03:22:15;6.20;99.90
19174;DHT22;9719;49.322;8.536;2023-04-15T03:27:18;6.20;99.90
19174;DHT22;9719;49.322;8.536;2023-04-15T03:32:19;6.20;99.90
19174;DHT22;9719;49.322;8.536;2023-04-15T03:37:21;6.10;99.90
19174;DHT22;9719;49.322;8.536;2023-04-15T03:42:24;6.10;99.90
19174;DHT22;9719;49.322;8.536;2023-04-15T03:47:26;6.10;99.90
19174;DHT22;9719;49.322;8.536;2023-04-15T03:52:28;6.10;99.90
19174;DHT22;9719;49.322;8.536;2023-04-15T03:57:31;6.00;99.90
19174;DHT22;9719;49.322;8.536;2023-04-15T04:02:37;6.00;99.90
19174;DHT22;9719;49.322;8.536;2023-04-15T04:07:39;6.10;99.90
19174;DHT22;9719;49.322;8.536;2023-04-15T04:12:42;6.10;99.90
19174;DHT22;9719;49.322;8.536;2023-04-15T04:17:44;6.10;99.90
19174;DHT22;9719;49.322;8.536;2023-04-15T04:22:45;6.10;99.90
19174;DHT22;9719;49.322;8.536;2023-04-15T04:27:48;6.00;99.90
19174;DHT22;9719;49.322;8.536;2023-04-15T04:32:50;6.00;99.90
19174;DHT22;9719;49.322;8.536;2023-04-15T04:37:52;5.90;99.90
19174;DHT22;9719;49.322;8.536;2023-04-15T04:42:55;5.90;99.90
19174;DHT22;9719;49.322;8.536;2023-04-15T04:47:57;5.80;99.90
19174;DHT22;9719;49.322;8.536;2023-04-15T04:52:59;5.90;99.90
19174;DHT22;9719;49.322;8.536;2023-04-15T04:58:02;5.90;99.90
19174;DHT22;9719;49.322;8.536;2023-04-15T05:03:04;6.00;99.90
19174;DHT22;9719;49.322;8.536;2023-04-15T05:08:05;6.00;99.90
19174;DHT22;9719;49.322;8.536;2023-04-15T05:13:08;6.10;99.90
19174;DHT22;9719;49.322;8.536;2023-04-15T05:18:10;6.20;99.90
19174;DHT22;9719;49.322;8.536;2023-04-15T05:23:12;6.30;99.90
19174;DHT22;9719;49.322;8.536;2023-04-15T05:28:15;6.40;99.90
19174;DHT22;9719;49.322;8.536;2023-04-15T05:33:17;6.50;99.90
19174;DHT22;9719;49.322;8.536;2023-04-15T05:38:18;6.70;99.90
19174;DHT22;9719;49.322;8.536;2023-04-15T05:43:21;6.90;99.90
19174;DHT22;9719;49.322;8.536;2023-04-15T05:48:23;7.10;99.90
19174;DHT22;9719;49.322;8.536;2023-04-15T05:53:25;7.20;99.90
19174;DHT22;9719;49.322;8.536;2023-04-15T05:58:28;7.40;99.90
19174;DHT22;9719;49.322;8.536;2023-04-15T06:03:30;7.60;99.90
19174;DHT22;9719;49.322;8.536;2023-04-15T06:08:32;7.80;99.90
19174;DHT22;9719;49.322;8.536;2023-04-15T06:13:35;8.00;99.90
19174;DHT22;9719;49.322;8.536;2023-04-15T06:18:36;8.20;99.90
19174;DHT22;9719;49.322;8.536;2023-04-15T06:23:38;8.50;99.90
19174;DHT22;9719;49.322;8.536;2023-04-15T06:28:42;8.70;99.90
19174;DHT22;9719;49.322;8.536;2023-04-15T06:33:44;8.90;99.90
19174;DHT22;9719;49.322;8.536;2023-04-15T06:38:46;9.10;99.90
19174;DHT22;9719;49.322;8.536;2023-04-15T06:43:49;9.20;99.90
19174;DHT22;9719;49.322;8.536;2023-04-15T06:48:51;9.50;99.90
19174;DHT22;9719;49.322;8.536;2023-04-15T06:53:53;9.80;99.90
19174;DHT22;9719;49.322;8.536;2023-04-15T06:58:56;10.10;99.90
19174;DHT22;9719;49.322;8.536;2023-04-15T07:03:57;10.40;99.90
19174;DHT22;9719;49.322;8.536;2023-04-15T07:08:59;10.80;99.90
19174;DHT22;9719;49.322;8.536;2023-04-15T07:14:03;11.10;99.90
19174;DHT22;9719;49.322;8.536;2023-04-15T07:19:06;11.20;99.90
19174;DHT22;9719;49.322;8.536;2023-04-15T07:24:07;11.50;99.90
19174;DHT22;9719;49.322;8.536;2023-04-15T07:29:11;11.80;99.90
19174;DHT22;9719;49.322;8.536;2023-04-15T07:34:13;12.20;99.90
19174;DHT22;9719;49.322;8.536;2023-04-15T07:39:14;12.50;99.90
19174;DHT22;9719;49.322;8.536;2023-04-15T07:44:17;12.90;99.90
19174;DHT22;9719;49.322;8.536;2023-04-15T07:49:19;13.20;99.90
19174;DHT22;9719;49.322;8.536;2023-04-15T07:54:21;13.50;99.90
19174;DHT22;9719;49.322;8.536;2023-04-15T07:59:24;13.70;99.90
19174;DHT22;9719;49.322;8.536;2023-04-15T08:04:27;13.80;99.90
19174;DHT22;9719;49.322;8.536;2023-04-15T08:09:29;13.60;99.90
19174;DHT22;9719;49.322;8.536;2023-04-15T08:14:32;13.70;99.90
19174;DHT22;9719;49.322;8.536;2023-04-15T08:19:33;13.60;99.90
19174;DHT22;9719;49.322;8.536;2023-04-15T08:24:35;13.80;99.90
19174;DHT22;9719;49.322;8.536;2023-04-15T08:29:38;13.80;99.90
19174;DHT22;9719;49.322;8.536;2023-04-15T08:34:41;14.00;99.90
19174;DHT22;9719;49.322;8.536;2023-04-15T08:39:42;14.30;99.90
19174;DHT22;9719;49.322;8.536;2023-04-15T08:44:46;14.60;99.90
19174;DHT22;9719;49.322;8.536;2023-04-15T08:49:49;15.00;99.90
19174;DHT22;9719;49.322;8.536;2023-04-15T08:54:56;15.40;99.90
19174;DHT22;9719;49.322;8.536;2023-04-15T09:00:02;15.70;99.90
19174;DHT22;9719;49.322;8.536;2023-04-15T09:05:05;16.00;99.90
19174;DHT22;9719;49.322;8.536;2023-04-15T09:10:08;16.00;99.80
19174;DHT22;9719;49.322;8.536;2023-04-15T09:15:11;16.10;99.90
19174;DHT22;9719;49.322;8.536;2023-04-15T09:20:15;16.40;99.90
19174;DHT22;9719;49.322;8.536;2023-04-15T09:25:25;16.80;99.90
19174;DHT22;9719;49.322;8.536;2023-04-15T09:30:28;17.00;97.00
19174;DHT22;9719;49.322;8.536;2023-04-15T09:35:30;17.20;97.90
19174;DHT22;9719;49.322;8.536;2023-04-15T09:40:33;17.40;97.70
19174;DHT22;9719;49.322;8.536;2023-04-15T09:45:38;17.20;92.50
19174;DHT22;9719;49.322;8.536;2023-04-15T09:50:40;17.10;94.10
19174;DHT22;9719;49.322;8.536;2023-04-15T09:55:44;17.70;94.20
19174;DHT22;9719;49.322;8.536;2023-04-15T10:00:48;18.10;93.20
19174;DHT22;9719;49.322;8.536;2023-04-15T10:05:52;18.30;91.90
19174;DHT22;9719;49.322;8.536;2023-04-15T10:10:54;18.40;90.70
19174;DHT22;9719;49.322;8.536;2023-04-15T10:15:59;18.50;85.10
19174;DHT22;9719;49.322;8.536;2023-04-15T10:21:01;18.30;81.30
19174;DHT22;9719;49.322;8.536;2023-04-15T10:26:03;18.10;82.50
19174;DHT22;9719;49.322;8.536;2023-04-15T10:31:07;19.00;73.90
19174;DHT22;9719;49.322;8.536;2023-04-15T10:36:09;18.70;77.00
19174;DHT22;9719;49.322;8.536;2023-04-15T10:41:17;19.00;78.30
19174;DHT22;9719;49.322;8.536;2023-04-15T10:46:23;19.20;76.70
19174;DHT22;9719;49.322;8.536;2023-04-15T10:51:29;19.00;75.60
19174;DHT22;9719;49.322;8.536;2023-04-15T10:56:31;19.00;76.60
19174;DHT22;9719;49.322;8.536;2023-04-15T11:01:54;19.20;79.30
19174;DHT22;9719;49.322;8.536;2023-04-15T11:07:04;19.10;71.40
19174;DHT22;9719;49.322;8.536;2023-04-15T11:12:07;19.20;72.80
19174;DHT22;9719;49.322;8.536;2023-04-15T11:17:11;19.20;73.60
19174;DHT22;9719;49.322;8.536;2023-04-15T11:22:12;19.40;74.80
19174;DHT22;9719;49.322;8.536;2023-04-15T11:27:20;19.30;70.80
19174;DHT22;9719;49.322;8.536;2023-04-15T11:32:24;18.90;67.80
19174;DHT22;9719;49.322;8.536;2023-04-15T11:37:28;19.00;69.00
19174;DHT22;9719;49.322;8.536;2023-04-15T11:42:31;19.30;67.90
19174;DHT22;9719;49.322;8.536;2023-04-15T11:47:34;19.20;64.80
19174;DHT22;9719;49.322;8.536;2023-04-15T11:52:36;19.20;66.60
19174;DHT22;9719;49.322;8.536;2023-04-15T11:57:37;18.90;66.00
19174;DHT22;9719;49.322;8.536;2023-04-15T12:02:41;18.70;63.90
19174;DHT22;9719;49.322;8.536;2023-04-15T12:07:58;18.40;64.50
19174;DHT22;9719;49.322;8.536;2023-04-15T12:13:00;18.10;63.50
19174;DHT22;9719;49.322;8.536;2023-04-15T12:18:03;17.70;62.10
19174;DHT22;9719;49.322;8.536;2023-04-15T12:23:05;17.60;63.00
19174;DHT22;9719;49.322;8.536;2023-04-15T12:28:10;17.70;63.80
19174;DHT22;9719;49.322;8.536;2023-04-15T12:33:13;18.00;64.60
19174;DHT22;9719;49.322;8.536;2023-04-15T12:38:15;18.30;64.50
19174;DHT22;9719;49.322;8.536;2023-04-15T12:43:17;17.80;61.80
19174;DHT22;9719;49.322;8.536;2023-04-15T12:48:20;17.40;63.50
19174;DHT22;9719;49.322;8.536;2023-04-15T12:53:21;17.10;64.60
19174;DHT22;9719;49.322;8.536;2023-04-15T12:58:23;16.90;65.00
19174;DHT22;9719;49.322;8.536;2023-04-15T13:03:26;16.70;66.20
19174;DHT22;9719;49.322;8.536;2023-04-15T13:08:28;16.70;66.40
19174;DHT22;9719;49.322;8.536;2023-04-15T13:13:31;16.60;66.70
19174;DHT22;9719;49.322;8.536;2023-04-15T13:18:34;16.50;65.90
19174;DHT22;9719;49.322;8.536;2023-04-15T13:23:36;16.40;65.90
19174;DHT22;9719;49.322;8.536;2023-04-15T13:28:37;16.30;65.70
19174;DHT22;9719;49.322;8.536;2023-04-15T13:33:41;16.40;66.20
19174;DHT22;9719;49.322;8.536;2023-04-15T13:38:42;16.60;65.50
19174;DHT22;9719;49.322;8.536;2023-04-15T13:43:44;16.50;64.80
19174;DHT22;9719;49.322;8.536;2023-04-15T13:48:48;16.60;64.00
19174;DHT22;9719;49.322;8.536;2023-04-15T13:53:49;16.60;63.30
19174;DHT22;9719;49.322;8.536;2023-04-15T13:58:51;16.50;63.10
19174;DHT22;9719;49.322;8.536;2023-04-15T14:03:55;16.60;63.80
19174;DHT22;9719;49.322;8.536;2023-04-15T14:08:57;16.70;62.90
19174;DHT22;9719;49.322;8.536;2023-04-15T14:13:58;16.80;64.50
19174;DHT22;9719;49.322;8.536;2023-04-15T14:19:01;16.90;64.90
19174;DHT22;9719;49.322;8.536;2023-04-15T14:24:04;16.90;64.80
19174;DHT22;9719;49.322;8.536;2023-04-15T14:29:06;17.20;65.00
19174;DHT22;9719;49.322;8.536;2023-04-15T14:34:09;17.60;65.80
19174;DHT22;9719;49.322;8.536;2023-04-15T14:39:10;17.50;64.20
19174;DHT22;9719;49.322;8.536;2023-04-15T14:44:14;17.30;66.00
19174;DHT22;9719;49.322;8.536;2023-04-15T14:49:17;16.80;68.50
19174;DHT22;9719;49.322;8.536;2023-04-15T14:54:18;16.50;72.80
19174;DHT22;9719;49.322;8.536;2023-04-15T14:59:20;16.10;77.10
19174;DHT22;9719;49.322;8.536;2023-04-15T15:04:23;15.80;79.00
19174;DHT22;9719;49.322;8.536;2023-04-15T15:09:25;15.50;82.00
19174;DHT22;9719;49.322;8.536;2023-04-15T15:14:27;15.30;86.00
19174;DHT22;9719;49.322;8.536;2023-04-15T15:19:30;15.10;89.80
19174;DHT22;9719;49.322;8.536;2023-04-15T15:24:32;15.10;92.00
19174;DHT22;9719;49.322;8.536;2023-04-15T15:29:33;15.00;92.80
19174;DHT22;9719;49.322;8.536;2023-04-15T15:34:37;14.70;94.30
19174;DHT22;9719;49.322;8.536;2023-04-15T15:39:39;14.50;96.30
19174;DHT22;9719;49.322;8.536;2023-04-15T15:44:40;14.20;98.20
19174;DHT22;9719;49.322;8.536;2023-04-15T15:49:43;14.10;99.90
19174;DHT22;9719;49.322;8.536;2023-04-15T15:54:45;13.90;99.90
19174;DHT22;9719;49.322;8.536;2023-04-15T15:59:47;13.90;99.90
19174;DHT22;9719;49.322;8.536;2023-04-15T16:04:50;13.70;99.90
19174;DHT22;9719;49.322;8.536;2023-04-15T16:09:52;13.60;99.90
19174;DHT22;9719;49.322;8.536;2023-04-15T16:14:54;13.40;99.90
19174;DHT22;9719;49.322;8.536;2023-04-15T16:19:57;13.20;99.90
19174;DHT22;9719;49.322;8.536;2023-04-15T16:24:59;13.00;99.90
19174;DHT22;9719;49.322;8.536;2023-04-15T16:30:01;12.80;99.90
19174;DHT22;9719;49.322;8.536;2023-04-15T16:35:05;12.70;99.90
19174;DHT22;9719;49.322;8.536;2023-04-15T16:40:08;12.70;99.90
19174;DHT22;9719;49.322;8.536;2023-04-15T16:45:10;12.70;99.90
19174;DHT22;9719;49.322;8.536;2023-04-15T16:50:13;12.70;99.90
19174;DHT22;9719;49.322;8.536;2023-04-15T16:55:15;12.70;99.90
19174;DHT22;9719;49.322;8.536;2023-04-15T17:00:17;12.70;99.90
19174;DHT22;9719;49.322;8.536;2023-04-15T17:05:21;12.70;99.90
19174;DHT22;9719;49.322;8.536;2023-04-15T17:10:22;12.60;99.90
19174;DHT22;9719;49.322;8.536;2023-04-15T17:15:25;12.60;99.90
19174;DHT22;9719;49.322;8.536;2023-04-15T17:20:28;12.50;99.90
19174;DHT22;9719;49.322;8.536;2023-04-15T17:25:30;12.40;99.90
19174;DHT22;9719;49.322;8.536;2023-04-15T17:30:32;12.40;99.90
19174;DHT22;9719;49.322;8.536;2023-04-15T17:35:35;12.30;99.90
19174;DHT22;9719;49.322;8.536;2023-04-15T17:40:37;12.30;99.90
19174;DHT22;9719;49.322;8.536;2023-04-15T17:45:39;12.30;99.90
19174;DHT22;9719;49.322;8.536;2023-04-15T17:50:42;12.30;99.90
19174;DHT22;9719;49.322;8.536;2023-04-15T17:55:43;12.20;99.90
19174;DHT22;9719;49.322;8.536;2023-04-15T18:00:45;12.20;99.90
19174;DHT22;9719;49.322;8.536;2023-04-15T18:05:48;12.10;99.90
19174;DHT22;9719;49.322;8.536;2023-04-15T18:10:50;12.00;99.90
19174;DHT22;9719;49.322;8.536;2023-04-15T18:15:52;12.00;99.90
19174;DHT22;9719;49.322;8.536;2023-04-15T18:20:55;12.00;99.90
19174;DHT22;9719;49.322;8.536;2023-04-15T18:25:56;12.00;99.90
19174;DHT22;9719;49.322;8.536;2023-04-15T18:30:58;11.90;99.90
19174;DHT22;9719;49.322;8.536;2023-04-15T18:36:02;11.90;99.90
19174;DHT22;9719;49.322;8.536;2023-04-15T18:41:04;11.80;99.90
19174;DHT22;9719;49.322;8.536;2023-04-15T18:46:06;11.80;99.90
19174;DHT22;9719;49.322;8.536;2023-04-15T18:51:12;11.80;99.90
19174;DHT22;9719;49.322;8.536;2023-04-15T18:56:14;11.70;99.90
19174;DHT22;9719;49.322;8.536;2023-04-15T19:01:15;11.70;99.90
19174;DHT22;9719;49.322;8.536;2023-04-15T19:06:18;11.70;99.90
19174;DHT22;9719;49.322;8.536;2023-04-15T19:11:21;11.70;99.90
19174;DHT22;9719;49.322;8.536;2023-04-15T19:16:23;11.70;99.90
19174;DHT22;9719;49.322;8.536;2023-04-15T19:21:26;11.70;99.90
19174;DHT22;9719;49.322;8.536;2023-04-15T19:26:29;11.70;99.90
19174;DHT22;9719;49.322;8.536;2023-04-15T19:31:31;11.70;99.90
19174;DHT22;9719;49.322;8.536;2023-04-15T19:36:34;11.70;99.90
19174;DHT22;9719;49.322;8.536;2023-04-15T19:41:36;11.60;99.90
19174;DHT22;9719;49.322;8.536;2023-04-15T19:46:38;11.60;99.90
19174;DHT22;9719;49.322;8.536;2023-04-15T19:51:41;11.50;99.90
19174;DHT22;9719;49.322;8.536;2023-04-15T19:56:43;11.50;99.90
19174;DHT22;9719;49.322;8.536;2023-04-15T20:01:45;11.50;99.90
19174;DHT22;9719;49.322;8.536;2023-04-15T20:06:49;11.60;99.90
19174;DHT22;9719;49.322;8.536;2023-04-15T20:11:50;11.50;99.90
19174;DHT22;9719;49.322;8.536;2023-04-15T20:16:52;11.50;99.90
19174;DHT22;9719;49.322;8.536;2023-04-15T20:21:55;11.50;99.90
19174;DHT22;9719;49.322;8.536;2023-04-15T20:26:57;11.50;99.90
19174;DHT22;9719;49.322;8.536;2023-04-15T20:31:58;11.50;99.90
19174;DHT22;9719;49.322;8.536;2023-04-15T20:37:01;11.50;99.90
19174;DHT22;9719;49.322;8.536;2023-04-15T20:42:03;11.50;99.90
19174;DHT22;9719;49.322;8.536;2023-04-15T20:47:09;11.50;99.90
19174;DHT22;9719;49.322;8.536;2023-04-15T20:52:12;11.50;99.90
19174;DHT22;9719;49.322;8.536;2023-04-15T20:57:14;11.50;99.90
19174;DHT22;9719;49.322;8.536;2023-04-15T21:02:16;11.50;99.90
19174;DHT22;9719;49.322;8.536;2023-04-15T21:07:19;11.50;99.90
19174;DHT22;9719;49.322;8.536;2023-04-15T21:12:20;11.50;99.90
19174;DHT22;9719;49.322;8.536;2023-04-15T21:17:22;11.50;99.90
19174;DHT22;9719;49.322;8.536;2023-04-15T21:22:25;11.50;99.90
19174;DHT22;9719;49.322;8.536;2023-04-15T21:27:27;11.50;99.90
19174;DHT22;9719;49.322;8.536;2023-04-15T21:32:29;11.50;99.90
19174;DHT22;9719;49.322;8.536;2023-04-15T21:37:32;11.50;99.90
19174;DHT22;9719;49.322;8.536;2023-04-15T21:42:34;11.50;99.90
19174;DHT22;9719;49.322;8.536;2023-04-15T21:47:35;11.40;99.90
19174;DHT22;9719;49.322;8.536;2023-04-15T21:52:38;11.50;99.90
19174;DHT22;9719;49.322;8.536;2023-04-15T21:57:40;11.50;99.90
19174;DHT22;9719;49.322;8.536;2023-04-15T22:02:42;11.60;99.90
19174;DHT22;9719;49.322;8.536;2023-04-15T22:07:45;11.60;99.90
19174;DHT22;9719;49.322;8.536;2023-04-15T22:12:46;11.60;99.90
19174;DHT22;9719;49.322;8.536;2023-04-15T22:17:48;11.60;99.90
19174;DHT22;9719;49.322;8.536;2023-04-15T22:22:51;11.60;99.90
19174;DHT22;9719;49.322;8.536;2023-04-15T22:27:53;11.70;99.90
19174;DHT22;9719;49.322;8.536;2023-04-15T22:32:55;11.70;99.90
19174;DHT22;9719;49.322;8.536;2023-04-15T22:37:58;11.70;99.90
19174;DHT22;9719;49.322;8.536;2023-04-15T22:43:00;11.70;99.90
19174;DHT22;9719;49.322;8.536;2023-04-15T22:48:01;11.60;99.90
19174;DHT22;9719;49.322;8.536;2023-04-15T22:53:06;11.60;99.90
19174;DHT22;9719;49.322;8.536;2023-04-15T22:58:07;11.60;99.90
19174;DHT22;9719;49.322;8.536;2023-04-15T23:03:09;11.60;99.90
19174;DHT22;9719;49.322;8.536;2023-04-15T23:08:12;11.60;99.90
19174;DHT22;9719;49.322;8.536;2023-04-15T23:13:14;11.60;99.90
19174;DHT22;9719;49.322;8.536;2023-04-15T23:18:15;11.60;99.90
19174;DHT22;9719;49.322;8.536;2023-04-15T23:23:19;11.60;99.90
19174;DHT22;9719;49.322;8.536;2023-04-15T23:28:20;11.60;99.90
19174;DHT22;9719;49.322;8.536;2023-04-15T23:33:22;11.60;99.90
19174;DHT22;9719;49.322;8.536;2023-04-15T23:38:25;11.60;99.90
19174;DHT22;9719;49.322;8.536;2023-04-15T23:43:27;11.60;99.90
19174;DHT22;9719;49.322;8.536;2023-04-15T23:48:29;11.60;99.90
19174;DHT22;9719;49.322;8.536;2023-04-15T23:53:32;11.60;99.90
19174;DHT22;9719;49.322;8.536;2023-04-15T23:58:34;11.50;99.90
